sensor_id;sensor_type;location;lat;lon;timestamp;pressure;altitude;pressure_sealevel;temperature;humidity
71145;BME280;58812;47.698;17.726;2023-03-01T00:01:06;101317.06;;;2.13;90.19
71145;BME280;58812;47.698;17.726;2023-03-01T00:03:32;101314.56;;;2.50;88.28
71145;BME280;58812;47.698;17.726;2023-03-01T00:05:58;101318.72;;;3.12;90.89
71145;BME280;58812;47.698;17.726;2023-03-01T00:08:26;101320.44;;;2.75;89.11
71145;BME280;58812;47.698;17.726;2023-03-01T00:13:37;101315.94;;;3.15;88.91
71145;BME280;58812;47.698;17.726;2023-03-01T00:16:04;101313.16;;;2.80;90.10
71145;BME280;58812;47.698;17.726;2023-03-01T00:18:30;101315.72;;;2.63;91.40
71145;BME280;58812;47.698;17.726;2023-03-01T00:20:56;101310.00;;;2.72;90.05
71145;BME280;58812;47.698;17.726;2023-03-01T00:23:22;101318.22;;;2.66;90.96
71145;BME280;58812;47.698;17.726;2023-03-01T00:25:48;101323.66;;;2.63;91.13
71145;BME280;58812;47.698;17.726;2023-03-01T00:28:13;101314.78;;;3.02;90.28
71145;BME280;58812;47.698;17.726;2023-03-01T00:30:39;101323.09;;;2.75;90.88
71145;BME280;58812;47.698;17.726;2023-03-01T00:33:04;101321.44;;;2.73;91.36
71145;BME280;58812;47.698;17.726;2023-03-01T00:35:32;101326.41;;;2.60;87.43
71145;BME280;58812;47.698;17.726;2023-03-01T00:37:57;101321.00;;;2.63;87.60
71145;BME280;58812;47.698;17.726;2023-03-01T00:40:31;101323.28;;;2.52;88.41
71145;BME280;58812;47.698;17.726;2023-03-01T00:42:57;101331.13;;;2.53;84.07
71145;BME280;58812;47.698;17.726;2023-03-01T00:45:22;101328.91;;;2.44;86.42
71145;BME280;58812;47.698;17.726;2023-03-01T00:47:49;101324.53;;;2.43;86.56
71145;BME280;58812;47.698;17.726;2023-03-01T00:50:14;101325.25;;;2.67;86.86
71145;BME280;58812;47.698;17.726;2023-03-01T00:52:40;101316.78;;;2.59;85.82
71145;BME280;58812;47.698;17.726;2023-03-01T00:55:06;101314.69;;;2.47;86.00
71145;BME280;58812;47.698;17.726;2023-03-01T00:57:31;101311.28;;;2.45;86.26
71145;BME280;58812;47.698;17.726;2023-03-01T00:59:57;101303.19;;;2.48;87.56
71145;BME280;58812;47.698;17.726;2023-03-01T01:02:23;101311.13;;;2.48;87.71
71145;BME280;58812;47.698;17.726;2023-03-01T01:04:49;101304.87;;;2.69;86.98
71145;BME280;58812;47.698;17.726;2023-03-01T01:07:14;101311.00;;;2.88;88.15
71145;BME280;58812;47.698;17.726;2023-03-01T01:09:40;101303.28;;;2.65;88.10
71145;BME280;58812;47.698;17.726;2023-03-01T01:12:06;101296.28;;;2.64;88.58
71145;BME280;58812;47.698;17.726;2023-03-01T01:14:32;101300.41;;;2.51;88.33
71145;BME280;58812;47.698;17.726;2023-03-01T01:16:57;101298.56;;;2.53;87.20
71145;BME280;58812;47.698;17.726;2023-03-01T01:19:24;101293.16;;;2.56;85.52
71145;BME280;58812;47.698;17.726;2023-03-01T01:21:50;101289.28;;;2.63;86.90
71145;BME280;58812;47.698;17.726;2023-03-01T01:24:16;101289.66;;;2.74;86.63
71145;BME280;58812;47.698;17.726;2023-03-01T01:26:42;101286.44;;;2.86;87.37
71145;BME280;58812;47.698;17.726;2023-03-01T01:29:08;101290.00;;;3.04;87.83
71145;BME280;58812;47.698;17.726;2023-03-01T01:31:34;101294.25;;;3.07;87.83
71145;BME280;58812;47.698;17.726;2023-03-01T01:34:02;101284.41;;;3.10;87.74
71145;BME280;58812;47.698;17.726;2023-03-01T01:36:29;101280.56;;;2.99;86.31
71145;BME280;58812;47.698;17.726;2023-03-01T01:38:54;101272.28;;;2.87;86.75
71145;BME280;58812;47.698;17.726;2023-03-01T01:41:21;101272.62;;;2.80;87.82
71145;BME280;58812;47.698;17.726;2023-03-01T01:43:49;101266.34;;;2.82;87.42
71145;BME280;58812;47.698;17.726;2023-03-01T01:46:22;101265.06;;;2.91;88.00
71145;BME280;58812;47.698;17.726;2023-03-01T01:49:02;101260.56;;;2.74;88.98
71145;BME280;58812;47.698;17.726;2023-03-01T01:51:33;101257.41;;;2.85;89.04
71145;BME280;58812;47.698;17.726;2023-03-01T01:54:09;101262.84;;;2.82;88.75
71145;BME280;58812;47.698;17.726;2023-03-01T01:56:37;101258.28;;;2.85;86.73
71145;BME280;58812;47.698;17.726;2023-03-01T01:59:04;101252.94;;;3.04;86.95
71145;BME280;58812;47.698;17.726;2023-03-01T02:01:30;101259.69;;;2.92;87.37
71145;BME280;58812;47.698;17.726;2023-03-01T02:03:55;101261.81;;;2.84;87.40
71145;BME280;58812;47.698;17.726;2023-03-01T02:06:31;101259.81;;;2.89;84.69
71145;BME280;58812;47.698;17.726;2023-03-01T02:09:02;101265.03;;;3.10;85.02
71145;BME280;58812;47.698;17.726;2023-03-01T02:11:31;101258.94;;;3.08;83.60
71145;BME280;58812;47.698;17.726;2023-03-01T02:13:56;101261.09;;;3.00;85.48
71145;BME280;58812;47.698;17.726;2023-03-01T02:16:22;101258.00;;;3.45;86.29
71145;BME280;58812;47.698;17.726;2023-03-01T02:18:49;101248.41;;;3.42;85.34
71145;BME280;58812;47.698;17.726;2023-03-01T02:21:26;101248.16;;;3.30;87.14
71145;BME280;58812;47.698;17.726;2023-03-01T02:23:56;101244.28;;;3.54;86.55
71145;BME280;58812;47.698;17.726;2023-03-01T02:28:51;101240.78;;;3.71;87.69
71145;BME280;58812;47.698;17.726;2023-03-01T02:31:18;101235.25;;;4.09;86.91
71145;BME280;58812;47.698;17.726;2023-03-01T02:34:03;101231.75;;;3.75;83.39
71145;BME280;58812;47.698;17.726;2023-03-01T02:36:44;101236.41;;;3.87;83.45
71145;BME280;58812;47.698;17.726;2023-03-01T02:39:15;101229.87;;;3.60;84.38
71145;BME280;58812;47.698;17.726;2023-03-01T02:41:45;101236.50;;;3.51;85.10
71145;BME280;58812;47.698;17.726;2023-03-01T02:44:12;101234.22;;;3.43;85.38
71145;BME280;58812;47.698;17.726;2023-03-01T02:47:04;101225.59;;;3.74;84.58
71145;BME280;58812;47.698;17.726;2023-03-01T02:49:33;101229.34;;;3.53;85.05
71145;BME280;58812;47.698;17.726;2023-03-01T02:55:09;101219.81;;;3.32;85.42
71145;BME280;58812;47.698;17.726;2023-03-01T02:57:38;101218.66;;;3.37;85.48
71145;BME280;58812;47.698;17.726;2023-03-01T03:00:07;101223.63;;;3.43;85.15
71145;BME280;58812;47.698;17.726;2023-03-01T03:02:35;101217.44;;;3.27;83.88
71145;BME280;58812;47.698;17.726;2023-03-01T03:05:08;101212.28;;;3.59;85.14
71145;BME280;58812;47.698;17.726;2023-03-01T03:07:36;101217.72;;;3.56;84.76
71145;BME280;58812;47.698;17.726;2023-03-01T03:10:04;101220.81;;;3.98;86.64
71145;BME280;58812;47.698;17.726;2023-03-01T03:12:30;101214.00;;;3.60;83.75
71145;BME280;58812;47.698;17.726;2023-03-01T03:14:55;101218.44;;;3.59;83.36
71145;BME280;58812;47.698;17.726;2023-03-01T03:17:20;101215.69;;;3.61;84.26
71145;BME280;58812;47.698;17.726;2023-03-01T03:19:46;101210.09;;;3.67;83.74
71145;BME280;58812;47.698;17.726;2023-03-01T03:22:12;101210.59;;;3.58;83.98
71145;BME280;58812;47.698;17.726;2023-03-01T03:24:38;101207.13;;;3.73;84.81
71145;BME280;58812;47.698;17.726;2023-03-01T03:27:04;101201.69;;;3.59;84.44
71145;BME280;58812;47.698;17.726;2023-03-01T03:29:30;101200.41;;;3.83;85.13
71145;BME280;58812;47.698;17.726;2023-03-01T03:31:55;101195.00;;;3.52;80.84
71145;BME280;58812;47.698;17.726;2023-03-01T03:34:21;101198.81;;;3.63;84.36
71145;BME280;58812;47.698;17.726;2023-03-01T03:36:46;101195.44;;;3.77;84.82
71145;BME280;58812;47.698;17.726;2023-03-01T03:39:12;101195.63;;;3.74;84.18
71145;BME280;58812;47.698;17.726;2023-03-01T03:41:37;101201.62;;;3.43;85.07
71145;BME280;58812;47.698;17.726;2023-03-01T03:44:02;101195.87;;;3.35;85.10
71145;BME280;58812;47.698;17.726;2023-03-01T03:46:28;101195.44;;;3.08;85.21
71145;BME280;58812;47.698;17.726;2023-03-01T03:48:53;101193.44;;;3.47;85.77
71145;BME280;58812;47.698;17.726;2023-03-01T03:51:19;101198.28;;;3.22;85.47
71145;BME280;58812;47.698;17.726;2023-03-01T03:53:45;101199.97;;;3.06;86.95
71145;BME280;58812;47.698;17.726;2023-03-01T03:56:11;101199.84;;;2.90;87.39
71145;BME280;58812;47.698;17.726;2023-03-01T03:58:37;101196.25;;;2.74;87.02
71145;BME280;58812;47.698;17.726;2023-03-01T04:01:03;101203.69;;;3.02;88.16
71145;BME280;58812;47.698;17.726;2023-03-01T04:03:30;101204.91;;;2.94;86.81
71145;BME280;58812;47.698;17.726;2023-03-01T04:06:00;101208.38;;;2.97;87.16
71145;BME280;58812;47.698;17.726;2023-03-01T04:08:27;101207.28;;;3.18;86.40
71145;BME280;58812;47.698;17.726;2023-03-01T04:10:58;101201.16;;;2.81;87.47
71145;BME280;58812;47.698;17.726;2023-03-01T04:13:24;101199.63;;;2.94;87.46
71145;BME280;58812;47.698;17.726;2023-03-01T04:15:54;101196.00;;;2.97;87.83
71145;BME280;58812;47.698;17.726;2023-03-01T04:18:21;101197.22;;;3.07;87.96
71145;BME280;58812;47.698;17.726;2023-03-01T04:20:48;101201.41;;;2.94;88.15
71145;BME280;58812;47.698;17.726;2023-03-01T04:23:15;101197.16;;;2.91;88.64
71145;BME280;58812;47.698;17.726;2023-03-01T04:25:49;101208.25;;;2.81;88.97
71145;BME280;58812;47.698;17.726;2023-03-01T04:28:20;101205.91;;;3.28;90.46
71145;BME280;58812;47.698;17.726;2023-03-01T04:30:45;101205.41;;;3.20;87.21
71145;BME280;58812;47.698;17.726;2023-03-01T04:33:11;101202.75;;;3.20;88.03
71145;BME280;58812;47.698;17.726;2023-03-01T04:35:37;101216.66;;;3.42;87.07
71145;BME280;58812;47.698;17.726;2023-03-01T04:38:04;101206.87;;;3.08;87.29
71145;BME280;58812;47.698;17.726;2023-03-01T04:40:30;101203.28;;;2.92;88.29
71145;BME280;58812;47.698;17.726;2023-03-01T04:42:56;101199.37;;;2.82;88.03
71145;BME280;58812;47.698;17.726;2023-03-01T04:45:22;101201.53;;;2.74;88.45
71145;BME280;58812;47.698;17.726;2023-03-01T04:47:47;101194.00;;;2.83;88.24
71145;BME280;58812;47.698;17.726;2023-03-01T04:50:17;101197.25;;;2.71;88.80
71145;BME280;58812;47.698;17.726;2023-03-01T04:52:46;101197.25;;;2.71;88.00
71145;BME280;58812;47.698;17.726;2023-03-01T04:55:12;101204.31;;;3.07;87.71
71145;BME280;58812;47.698;17.726;2023-03-01T04:57:38;101199.28;;;2.83;87.30
71145;BME280;58812;47.698;17.726;2023-03-01T05:00:05;101201.25;;;2.80;87.72
71145;BME280;58812;47.698;17.726;2023-03-01T05:02:53;101199.53;;;2.79;87.60
71145;BME280;58812;47.698;17.726;2023-03-01T05:05:24;101209.66;;;2.88;87.55
71145;BME280;58812;47.698;17.726;2023-03-01T05:07:57;101208.50;;;2.93;88.21
71145;BME280;58812;47.698;17.726;2023-03-01T05:10:24;101205.56;;;3.00;87.69
71145;BME280;58812;47.698;17.726;2023-03-01T05:12:50;101214.69;;;2.75;88.42
71145;BME280;58812;47.698;17.726;2023-03-01T05:15:17;101211.12;;;3.30;90.83
71145;BME280;58812;47.698;17.726;2023-03-01T05:17:43;101210.19;;;3.31;87.68
71145;BME280;58812;47.698;17.726;2023-03-01T05:20:10;101210.59;;;2.87;88.30
71145;BME280;58812;47.698;17.726;2023-03-01T05:22:35;101217.97;;;2.80;88.38
71145;BME280;58812;47.698;17.726;2023-03-01T05:25:02;101210.66;;;2.85;88.60
71145;BME280;58812;47.698;17.726;2023-03-01T05:27:27;101211.62;;;3.02;89.31
71145;BME280;58812;47.698;17.726;2023-03-01T05:29:55;101212.16;;;3.08;87.90
71145;BME280;58812;47.698;17.726;2023-03-01T05:32:20;101208.94;;;2.84;87.04
71145;BME280;58812;47.698;17.726;2023-03-01T05:34:46;101214.91;;;3.07;88.25
71145;BME280;58812;47.698;17.726;2023-03-01T05:37:12;101217.75;;;3.21;88.13
71145;BME280;58812;47.698;17.726;2023-03-01T05:39:38;101218.75;;;2.63;83.31
71145;BME280;58812;47.698;17.726;2023-03-01T05:42:04;101217.13;;;2.80;87.24
71145;BME280;58812;47.698;17.726;2023-03-01T05:44:30;101218.69;;;2.65;86.07
71145;BME280;58812;47.698;17.726;2023-03-01T05:46:56;101223.19;;;2.63;88.60
71145;BME280;58812;47.698;17.726;2023-03-01T05:49:22;101224.47;;;2.54;87.38
71145;BME280;58812;47.698;17.726;2023-03-01T05:51:52;101226.91;;;2.21;86.56
71145;BME280;58812;47.698;17.726;2023-03-01T05:54:19;101220.53;;;2.25;88.92
71145;BME280;58812;47.698;17.726;2023-03-01T05:56:45;101228.62;;;2.22;89.03
71145;BME280;58812;47.698;17.726;2023-03-01T05:59:11;101224.84;;;2.47;90.57
71145;BME280;58812;47.698;17.726;2023-03-01T06:01:37;101231.53;;;2.54;90.56
71145;BME280;58812;47.698;17.726;2023-03-01T06:04:03;101228.53;;;2.42;88.57
71145;BME280;58812;47.698;17.726;2023-03-01T06:06:29;101219.72;;;2.44;89.15
71145;BME280;58812;47.698;17.726;2023-03-01T06:08:55;101215.84;;;2.32;88.90
71145;BME280;58812;47.698;17.726;2023-03-01T06:11:21;101225.91;;;2.42;89.14
71145;BME280;58812;47.698;17.726;2023-03-01T06:13:47;101220.00;;;2.37;88.71
71145;BME280;58812;47.698;17.726;2023-03-01T06:16:13;101224.72;;;2.50;89.00
71145;BME280;58812;47.698;17.726;2023-03-01T06:18:39;101221.50;;;2.98;89.23
71145;BME280;58812;47.698;17.726;2023-03-01T06:21:06;101222.12;;;2.67;88.23
71145;BME280;58812;47.698;17.726;2023-03-01T06:23:33;101222.63;;;2.75;88.34
71145;BME280;58812;47.698;17.726;2023-03-01T06:25:59;101236.31;;;2.83;87.79
71145;BME280;58812;47.698;17.726;2023-03-01T06:28:25;101241.13;;;2.75;87.48
71145;BME280;58812;47.698;17.726;2023-03-01T06:30:51;101236.13;;;2.69;87.82
71145;BME280;58812;47.698;17.726;2023-03-01T06:33:18;101243.81;;;2.92;87.77
71145;BME280;58812;47.698;17.726;2023-03-01T06:35:46;101244.94;;;3.06;87.45
71145;BME280;58812;47.698;17.726;2023-03-01T06:38:12;101242.84;;;3.12;85.93
71145;BME280;58812;47.698;17.726;2023-03-01T06:40:40;101251.53;;;3.33;86.78
71145;BME280;58812;47.698;17.726;2023-03-01T06:43:06;101243.78;;;3.11;87.20
71145;BME280;58812;47.698;17.726;2023-03-01T06:45:32;101247.09;;;3.34;87.34
71145;BME280;58812;47.698;17.726;2023-03-01T06:48:04;101249.66;;;3.35;86.91
71145;BME280;58812;47.698;17.726;2023-03-01T06:50:31;101255.25;;;3.29;85.26
71145;BME280;58812;47.698;17.726;2023-03-01T06:52:57;101254.69;;;4.09;87.61
71145;BME280;58812;47.698;17.726;2023-03-01T06:55:23;101256.03;;;3.83;84.84
71145;BME280;58812;47.698;17.726;2023-03-01T06:57:48;101260.87;;;3.58;83.89
71145;BME280;58812;47.698;17.726;2023-03-01T07:00:14;101265.56;;;3.53;84.45
71145;BME280;58812;47.698;17.726;2023-03-01T07:02:39;101265.09;;;3.62;84.94
71145;BME280;58812;47.698;17.726;2023-03-01T07:05:05;101266.28;;;3.20;83.41
71145;BME280;58812;47.698;17.726;2023-03-01T07:07:31;101260.56;;;3.46;87.35
71145;BME280;58812;47.698;17.726;2023-03-01T07:09:57;101261.38;;;3.12;85.09
71145;BME280;58812;47.698;17.726;2023-03-01T07:12:22;101261.53;;;3.09;86.17
71145;BME280;58812;47.698;17.726;2023-03-01T07:14:48;101260.81;;;3.06;86.04
71145;BME280;58812;47.698;17.726;2023-03-01T07:17:13;101269.03;;;4.38;92.79
71145;BME280;58812;47.698;17.726;2023-03-01T07:19:39;101269.75;;;4.58;89.24
71145;BME280;58812;47.698;17.726;2023-03-01T07:22:04;101260.53;;;5.12;90.94
71145;BME280;58812;47.698;17.726;2023-03-01T07:24:33;101263.25;;;4.79;87.60
71145;BME280;58812;47.698;17.726;2023-03-01T07:26:58;101262.31;;;5.12;86.94
71145;BME280;58812;47.698;17.726;2023-03-01T07:29:26;101263.69;;;5.03;86.12
71145;BME280;58812;47.698;17.726;2023-03-01T07:31:55;101261.53;;;5.09;85.75
71145;BME280;58812;47.698;17.726;2023-03-01T07:34:20;101267.47;;;4.83;84.85
71145;BME280;58812;47.698;17.726;2023-03-01T07:36:46;101264.37;;;5.06;81.84
71145;BME280;58812;47.698;17.726;2023-03-01T07:39:11;101269.16;;;4.84;85.25
71145;BME280;58812;47.698;17.726;2023-03-01T07:41:37;101267.47;;;4.83;85.85
71145;BME280;58812;47.698;17.726;2023-03-01T07:44:03;101270.69;;;4.72;87.65
71145;BME280;58812;47.698;17.726;2023-03-01T07:46:28;101263.44;;;5.23;85.85
71145;BME280;58812;47.698;17.726;2023-03-01T07:48:54;101261.50;;;5.41;84.75
71145;BME280;58812;47.698;17.726;2023-03-01T07:51:19;101258.41;;;4.87;82.78
71145;BME280;58812;47.698;17.726;2023-03-01T07:53:48;101251.75;;;5.26;84.12
71145;BME280;58812;47.698;17.726;2023-03-01T07:56:15;101254.78;;;5.80;82.42
71145;BME280;58812;47.698;17.726;2023-03-01T07:58:43;101260.03;;;5.05;84.44
71145;BME280;58812;47.698;17.726;2023-03-01T08:01:12;101256.66;;;5.18;82.61
71145;BME280;58812;47.698;17.726;2023-03-01T08:03:38;101259.66;;;4.80;79.83
71145;BME280;58812;47.698;17.726;2023-03-01T08:06:05;101261.19;;;5.61;82.84
71145;BME280;58812;47.698;17.726;2023-03-01T08:08:31;101249.94;;;5.86;79.56
71145;BME280;58812;47.698;17.726;2023-03-01T08:10:58;101252.62;;;5.56;79.07
71145;BME280;58812;47.698;17.726;2023-03-01T08:13:24;101260.87;;;6.40;80.05
71145;BME280;58812;47.698;17.726;2023-03-01T08:15:49;101254.66;;;5.97;80.13
71145;BME280;58812;47.698;17.726;2023-03-01T08:18:16;101252.78;;;6.42;79.82
71145;BME280;58812;47.698;17.726;2023-03-01T08:20:42;101256.56;;;6.09;81.01
71145;BME280;58812;47.698;17.726;2023-03-01T08:23:07;101253.16;;;6.36;79.69
71145;BME280;58812;47.698;17.726;2023-03-01T08:25:33;101249.72;;;5.91;76.28
71145;BME280;58812;47.698;17.726;2023-03-01T08:27:58;101253.53;;;6.01;77.70
71145;BME280;58812;47.698;17.726;2023-03-01T08:30:24;101249.16;;;6.43;79.85
71145;BME280;58812;47.698;17.726;2023-03-01T08:32:50;101248.03;;;6.33;75.20
71145;BME280;58812;47.698;17.726;2023-03-01T08:35:16;101257.78;;;5.74;77.23
71145;BME280;58812;47.698;17.726;2023-03-01T08:37:42;101256.16;;;5.87;77.16
71145;BME280;58812;47.698;17.726;2023-03-01T08:40:09;101257.78;;;6.75;79.13
71145;BME280;58812;47.698;17.726;2023-03-01T08:42:36;101249.25;;;6.56;77.43
71145;BME280;58812;47.698;17.726;2023-03-01T08:45:02;101246.47;;;6.57;75.57
71145;BME280;58812;47.698;17.726;2023-03-01T08:47:27;101252.78;;;6.13;75.36
71145;BME280;58812;47.698;17.726;2023-03-01T08:49:53;101241.47;;;6.10;77.63
71145;BME280;58812;47.698;17.726;2023-03-01T08:52:19;101243.94;;;6.70;76.70
71145;BME280;58812;47.698;17.726;2023-03-01T08:54:46;101235.00;;;6.57;76.68
71145;BME280;58812;47.698;17.726;2023-03-01T08:57:12;101231.09;;;6.77;73.64
71145;BME280;58812;47.698;17.726;2023-03-01T08:59:37;101233.53;;;6.80;72.62
71145;BME280;58812;47.698;17.726;2023-03-01T09:02:05;101233.56;;;7.07;73.99
71145;BME280;58812;47.698;17.726;2023-03-01T09:04:31;101226.69;;;7.69;73.89
71145;BME280;58812;47.698;17.726;2023-03-01T09:06:56;101226.13;;;7.64;69.52
71145;BME280;58812;47.698;17.726;2023-03-01T09:09:22;101221.78;;;7.63;71.46
71145;BME280;58812;47.698;17.726;2023-03-01T09:11:47;101229.03;;;8.12;70.86
71145;BME280;58812;47.698;17.726;2023-03-01T09:14:15;101214.13;;;7.97;67.80
71145;BME280;58812;47.698;17.726;2023-03-01T09:16:40;101216.91;;;7.03;69.64
71145;BME280;58812;47.698;17.726;2023-03-01T09:19:06;101198.53;;;6.86;70.71
71145;BME280;58812;47.698;17.726;2023-03-01T09:21:31;101201.69;;;6.37;69.14
71145;BME280;58812;47.698;17.726;2023-03-01T09:23:57;101198.47;;;6.73;69.51
71145;BME280;58812;47.698;17.726;2023-03-01T09:26:24;101205.69;;;8.28;68.94
71145;BME280;58812;47.698;17.726;2023-03-01T09:28:51;101201.88;;;7.29;65.87
71145;BME280;58812;47.698;17.726;2023-03-01T09:31:19;101198.56;;;7.65;66.93
71145;BME280;58812;47.698;17.726;2023-03-01T09:33:49;101195.50;;;7.32;67.04
71145;BME280;58812;47.698;17.726;2023-03-01T09:36:18;101192.59;;;8.13;65.53
71145;BME280;58812;47.698;17.726;2023-03-01T09:38:44;101195.25;;;8.25;65.05
71145;BME280;58812;47.698;17.726;2023-03-01T09:43:51;101205.66;;;8.91;65.45
71145;BME280;58812;47.698;17.726;2023-03-01T09:46:23;101192.34;;;8.16;63.32
71145;BME280;58812;47.698;17.726;2023-03-01T09:49:07;101183.63;;;7.75;64.62
71145;BME280;58812;47.698;17.726;2023-03-01T09:51:36;101183.03;;;8.34;61.52
71145;BME280;58812;47.698;17.726;2023-03-01T09:54:03;101175.19;;;7.69;64.39
71145;BME280;58812;47.698;17.726;2023-03-01T10:07:23;101169.34;;;10.27;63.05
71145;BME280;58812;47.698;17.726;2023-03-01T10:09:52;101166.22;;;9.18;56.96
71145;BME280;58812;47.698;17.726;2023-03-01T10:12:20;101158.84;;;8.98;60.69
71145;BME280;58812;47.698;17.726;2023-03-01T10:20:30;101151.56;;;11.24;56.41
71145;BME280;58812;47.698;17.726;2023-03-01T10:22:59;101147.25;;;11.12;57.39
71145;BME280;58812;47.698;17.726;2023-03-01T10:31:01;101149.00;;;12.46;53.40
71145;BME280;58812;47.698;17.726;2023-03-01T10:33:32;101141.44;;;11.90;52.22
71145;BME280;58812;47.698;17.726;2023-03-01T10:36:00;101132.06;;;12.15;54.43
71145;BME280;58812;47.698;17.726;2023-03-01T10:38:31;101133.38;;;13.09;53.40
71145;BME280;58812;47.698;17.726;2023-03-01T10:41:05;101123.78;;;13.17;50.55
71145;BME280;58812;47.698;17.726;2023-03-01T10:43:52;101114.69;;;12.98;49.34
71145;BME280;58812;47.698;17.726;2023-03-01T10:46:34;101121.00;;;12.49;51.76
71145;BME280;58812;47.698;17.726;2023-03-01T10:49:21;101114.63;;;11.69;49.01
71145;BME280;58812;47.698;17.726;2023-03-01T10:51:49;101120.66;;;13.97;50.32
71145;BME280;58812;47.698;17.726;2023-03-01T10:54:29;101116.97;;;13.13;49.62
71145;BME280;58812;47.698;17.726;2023-03-01T10:56:56;101109.91;;;14.52;46.91
71145;BME280;58812;47.698;17.726;2023-03-01T10:59:34;101106.06;;;14.00;45.40
71145;BME280;58812;47.698;17.726;2023-03-01T11:04:35;101099.88;;;13.80;46.51
71145;BME280;58812;47.698;17.726;2023-03-01T11:07:01;101100.88;;;12.93;48.94
71145;BME280;58812;47.698;17.726;2023-03-01T11:09:31;101097.34;;;12.23;47.11
71145;BME280;58812;47.698;17.726;2023-03-01T11:12:03;101097.69;;;11.69;48.10
71145;BME280;58812;47.698;17.726;2023-03-01T11:14:36;101094.63;;;13.41;47.36
71145;BME280;58812;47.698;17.726;2023-03-01T11:17:28;101088.37;;;12.53;46.17
71145;BME280;58812;47.698;17.726;2023-03-01T11:20:09;101083.25;;;12.31;49.50
71145;BME280;58812;47.698;17.726;2023-03-01T11:22:51;101087.31;;;11.85;46.99
71145;BME280;58812;47.698;17.726;2023-03-01T11:25:21;101086.41;;;12.84;48.18
71145;BME280;58812;47.698;17.726;2023-03-01T11:27:49;101078.13;;;13.63;45.66
71145;BME280;58812;47.698;17.726;2023-03-01T11:30:38;101077.37;;;14.08;43.75
71145;BME280;58812;47.698;17.726;2023-03-01T11:38:40;101083.38;;;11.89;47.77
71145;BME280;58812;47.698;17.726;2023-03-01T11:41:20;101091.41;;;11.59;47.97
71145;BME280;58812;47.698;17.726;2023-03-01T11:57:12;101082.47;;;11.07;50.49
71145;BME280;58812;47.698;17.726;2023-03-01T12:03:01;101084.34;;;10.95;51.11
71145;BME280;58812;47.698;17.726;2023-03-01T12:08:17;101072.28;;;10.14;51.04
71145;BME280;58812;47.698;17.726;2023-03-01T12:16:46;101063.66;;;11.39;51.87
71145;BME280;58812;47.698;17.726;2023-03-01T12:19:54;101058.69;;;11.65;53.79
71145;BME280;58812;47.698;17.726;2023-03-01T12:22:32;101063.00;;;11.05;52.58
71145;BME280;58812;47.698;17.726;2023-03-01T12:28:17;101047.72;;;10.20;52.92
71145;BME280;58812;47.698;17.726;2023-03-01T12:31:14;101041.63;;;10.93;52.90
71145;BME280;58812;47.698;17.726;2023-03-01T12:33:54;101039.44;;;10.87;52.55
71145;BME280;58812;47.698;17.726;2023-03-01T12:36:46;101042.78;;;11.01;51.89
71145;BME280;58812;47.698;17.726;2023-03-01T12:48:39;101030.72;;;9.65;55.01
71145;BME280;58812;47.698;17.726;2023-03-01T12:51:09;101025.88;;;9.70;55.05
71145;BME280;58812;47.698;17.726;2023-03-01T12:53:56;101020.78;;;9.56;54.77
71145;BME280;58812;47.698;17.726;2023-03-01T12:56:25;101023.16;;;10.15;56.12
71145;BME280;58812;47.698;17.726;2023-03-01T13:01:40;101024.66;;;9.97;59.49
71145;BME280;58812;47.698;17.726;2023-03-01T13:17:50;100997.47;;;10.12;55.52
71145;BME280;58812;47.698;17.726;2023-03-01T13:20:19;101006.75;;;9.97;53.36
71145;BME280;58812;47.698;17.726;2023-03-01T13:22:47;100998.91;;;9.84;53.04
71145;BME280;58812;47.698;17.726;2023-03-01T13:25:16;100996.59;;;10.34;54.15
71145;BME280;58812;47.698;17.726;2023-03-01T13:27:43;100988.47;;;10.25;52.57
71145;BME280;58812;47.698;17.726;2023-03-01T13:35:53;100975.03;;;10.36;52.49
71145;BME280;58812;47.698;17.726;2023-03-01T13:41:09;100961.72;;;10.57;53.69
71145;BME280;58812;47.698;17.726;2023-03-01T13:43:37;100959.06;;;10.66;55.56
71145;BME280;58812;47.698;17.726;2023-03-01T13:48:43;100944.59;;;10.69;51.40
71145;BME280;58812;47.698;17.726;2023-03-01T13:51:10;100949.31;;;10.24;52.51
71145;BME280;58812;47.698;17.726;2023-03-01T13:53:41;100944.56;;;10.27;52.55
71145;BME280;58812;47.698;17.726;2023-03-01T13:56:11;100940.09;;;9.62;54.08
71145;BME280;58812;47.698;17.726;2023-03-01T13:58:51;100947.00;;;10.08;54.71
71145;BME280;58812;47.698;17.726;2023-03-01T14:01:29;100947.41;;;10.88;54.03
71145;BME280;58812;47.698;17.726;2023-03-01T14:03:56;100948.00;;;10.50;53.98
71145;BME280;58812;47.698;17.726;2023-03-01T14:06:27;100949.94;;;10.69;53.50
71145;BME280;58812;47.698;17.726;2023-03-01T14:19:37;100934.84;;;10.15;55.16
71145;BME280;58812;47.698;17.726;2023-03-01T14:22:18;100927.75;;;10.25;56.89
71145;BME280;58812;47.698;17.726;2023-03-01T14:24:59;100925.56;;;10.19;54.76
71145;BME280;58812;47.698;17.726;2023-03-01T14:27:28;100923.50;;;9.90;55.95
71145;BME280;58812;47.698;17.726;2023-03-01T14:30:03;100920.53;;;10.05;55.68
71145;BME280;58812;47.698;17.726;2023-03-01T14:32:35;100922.09;;;9.64;56.47
71145;BME280;58812;47.698;17.726;2023-03-01T14:35:00;100921.72;;;10.12;56.79
71145;BME280;58812;47.698;17.726;2023-03-01T14:37:32;100918.66;;;9.84;55.63
71145;BME280;58812;47.698;17.726;2023-03-01T14:40:00;100917.47;;;9.66;56.39
71145;BME280;58812;47.698;17.726;2023-03-01T14:42:29;100917.25;;;9.58;56.87
71145;BME280;58812;47.698;17.726;2023-03-01T14:44:57;100902.72;;;9.17;57.25
71145;BME280;58812;47.698;17.726;2023-03-01T14:47:32;100897.13;;;8.98;57.75
71145;BME280;58812;47.698;17.726;2023-03-01T14:50:13;100903.91;;;8.79;58.47
71145;BME280;58812;47.698;17.726;2023-03-01T14:52:43;100905.13;;;8.87;58.37